Time;durP1;ratioP1;P1;durP2;ratioP2;P2;SDS_P1;SDS_P2;PMS_P1;PMS_P2;Temp;Humidity;BMP_temperature;BMP_pressure;BME280_temperature;BME280_humidity;BME280_pressure;Samples;Min_cycle;Max_cycle;Signal;HPM_P1;HPM_P2
2023/01/10 00:01:56;;;;;;;2.73;2.00;;;3.90;99.90;;;;;;5018252;28;20032;-95
2023/01/10 00:04:22;;;;;;;4.10;2.10;;;3.90;99.90;;;;;;5032248;28;20108;-94
2023/01/10 00:06:47;;;;;;;2.40;1.73;;;3.90;99.90;;;;;;5005151;28;20382;-92
2023/01/10 00:09:13;;;;;;;3.63;1.70;;;3.90;99.90;;;;;;5038010;28;20025;-94
2023/01/10 00:14:25;;;;;;;2.20;1.60;;;3.90;99.90;;;;;;5036521;28;20551;-93
2023/01/10 00:16:50;;;;;;;2.70;1.80;;;3.90;99.90;;;;;;5001486;28;20486;-93
2023/01/10 00:19:16;;;;;;;3.40;1.90;;;3.90;99.90;;;;;;5012372;28;20021;-94
2023/01/10 00:21:41;;;;;;;2.33;1.70;;;3.90;99.90;;;;;;5015371;28;20152;-94
2023/01/10 00:24:19;;;;;;;3.17;2.33;;;3.90;99.90;;;;;;5017004;28;20071;-94
2023/01/10 00:26:50;;;;;;;3.63;1.73;;;3.90;99.90;;;;;;4999580;28;20076;-94
2023/01/10 00:29:26;;;;;;;2.40;1.90;;;3.90;99.90;;;;;;4999192;28;20046;-93
2023/01/10 00:31:53;;;;;;;2.63;1.73;;;3.90;99.90;;;;;;5027572;28;20033;-93
2023/01/10 00:34:18;;;;;;;2.90;1.80;;;4.00;99.90;;;;;;5036055;28;20041;-94
2023/01/10 00:36:46;;;;;;;2.43;1.60;;;3.90;99.90;;;;;;5035483;28;20091;-94
2023/01/10 00:39:13;;;;;;;2.43;1.70;;;3.90;99.90;;;;;;5036999;28;20045;-93
2023/01/10 00:44:24;;;;;;;2.10;1.70;;;4.10;99.90;;;;;;5031169;28;20041;-94
2023/01/10 00:46:51;;;;;;;3.07;1.70;;;4.10;99.90;;;;;;5016194;28;20065;-93
2023/01/10 00:49:16;;;;;;;1.50;1.40;;;4.00;99.90;;;;;;5016351;28;20029;-93
2023/01/10 00:51:45;;;;;;;3.80;2.00;;;4.00;99.90;;;;;;5033980;28;20041;-93
2023/01/10 00:54:12;;;;;;;3.53;1.60;;;4.00;99.90;;;;;;5016767;28;20493;-93
2023/01/10 00:56:37;;;;;;;4.40;1.60;;;4.10;99.90;;;;;;5019991;28;20022;-94
2023/01/10 00:59:05;;;;;;;3.53;2.17;;;4.00;99.90;;;;;;5019630;28;20028;-94
2023/01/10 01:01:31;;;;;;;2.17;1.67;;;4.00;99.90;;;;;;5020479;28;20034;-93
2023/01/10 01:03:58;;;;;;;4.27;1.80;;;4.00;99.90;;;;;;5012683;28;20056;-95
2023/01/10 01:06:24;;;;;;;3.30;2.00;;;4.00;99.90;;;;;;5039935;28;20100;-94
2023/01/10 01:08:50;;;;;;;3.20;1.67;;;4.00;99.90;;;;;;5020374;28;20405;-93
2023/01/10 01:11:16;;;;;;;2.70;1.80;;;4.00;99.90;;;;;;5020382;28;20029;-94
2023/01/10 01:13:41;;;;;;;2.63;1.80;;;3.90;99.90;;;;;;5021772;28;20360;-94
2023/01/10 01:16:07;;;;;;;3.20;1.73;;;3.90;99.90;;;;;;5022203;28;20509;-94
2023/01/10 01:18:33;;;;;;;3.90;1.70;;;3.90;99.90;;;;;;5039993;28;20491;-92
2023/01/10 01:21:04;;;;;;;4.87;2.03;;;3.90;99.90;;;;;;5040001;28;20505;-94
2023/01/10 01:23:29;;;;;;;2.73;1.77;;;3.90;99.90;;;;;;5039948;28;20022;-93
2023/01/10 01:25:56;;;;;;;6.03;1.93;;;3.80;99.90;;;;;;5022176;28;20529;-94
2023/01/10 01:28:22;;;;;;;3.27;1.60;;;3.80;99.90;;;;;;5037921;28;20470;-93
2023/01/10 01:30:48;;;;;;;3.83;1.63;;;3.90;99.90;;;;;;4999727;28;20034;-95
2023/01/10 01:33:14;;;;;;;3.33;1.90;;;3.80;99.90;;;;;;5017855;28;20034;-94
2023/01/10 01:35:43;;;;;;;3.43;1.70;;;3.90;99.90;;;;;;5017583;28;20034;-94
2023/01/10 01:38:09;;;;;;;5.70;1.77;;;3.80;99.90;;;;;;5000290;28;20519;-93
2023/01/10 01:40:36;;;;;;;3.10;1.77;;;3.90;99.90;;;;;;5023233;28;20036;-94
2023/01/10 01:43:02;;;;;;;5.83;2.00;;;3.90;99.90;;;;;;5037364;28;20035;-95
2023/01/10 01:45:38;;;;;;;4.40;1.77;;;3.80;99.90;;;;;;5019052;28;20022;-95
2023/01/10 01:48:32;;;;;;;2.60;1.60;;;3.80;99.90;;;;;;5019771;28;20048;-93
2023/01/10 01:51:16;;;;;;;4.57;1.60;;;3.90;99.90;;;;;;5039617;28;20113;-94
2023/01/10 01:53:48;;;;;;;2.80;1.50;;;3.90;99.90;;;;;;5021179;28;20071;-92
2023/01/10 01:56:19;;;;;;;3.57;1.50;;;3.90;99.90;;;;;;5000424;28;20425;-93
2023/01/10 01:58:56;;;;;;;3.30;1.30;;;3.90;99.90;;;;;;5033608;28;20022;-93
2023/01/10 02:01:22;;;;;;;3.40;1.53;;;3.90;99.90;;;;;;5037161;28;20026;-93
2023/01/10 02:03:53;;;;;;;2.77;1.33;;;3.80;99.90;;;;;;5019090;28;20120;-92
2023/01/10 02:06:22;;;;;;;2.83;1.40;;;3.80;99.90;;;;;;5018711;28;20040;-93
2023/01/10 02:08:58;;;;;;;5.27;1.50;;;3.80;99.90;;;;;;5026041;28;20035;-93
2023/01/10 02:11:23;;;;;;;5.53;1.67;;;3.80;99.90;;;;;;5030181;28;20038;-94
2023/01/10 02:13:50;;;;;;;2.47;1.50;;;3.80;99.90;;;;;;5036732;28;20079;-93
2023/01/10 02:16:16;;;;;;;2.77;1.73;;;3.90;99.90;;;;;;5018275;28;20056;-94
2023/01/10 02:18:42;;;;;;;9.03;1.87;;;3.90;99.90;;;;;;5018737;28;20056;-93
2023/01/10 02:21:17;;;;;;;3.03;1.40;;;4.00;99.90;;;;;;5018768;28;20091;-92
2023/01/10 02:24:07;;;;;;;3.90;1.77;;;4.00;99.90;;;;;;5020193;28;20029;-93
2023/01/10 02:26:54;;;;;;;4.77;1.57;;;4.00;99.90;;;;;;5018840;28;20628;-94
2023/01/10 02:29:57;;;;;;;3.70;1.60;;;4.00;99.90;;;;;;5017919;28;20140;-94
2023/01/10 02:32:22;;;;;;;4.20;2.00;;;3.90;99.90;;;;;;5018670;28;20037;-93
2023/01/10 02:35:06;;;;;;;4.00;1.50;;;3.90;99.90;;;;;;5019099;28;20029;-93
2023/01/10 02:37:50;;;;;;;3.60;1.43;;;3.90;99.90;;;;;;5036713;28;20328;-93
2023/01/10 02:40:50;;;;;;;2.90;1.33;;;3.90;99.90;;;;;;5032421;28;20332;-94
2023/01/10 02:43:25;;;;;;;3.70;1.40;;;3.90;99.90;;;;;;5026824;28;20048;-93
2023/01/10 02:45:59;;;;;;;1.80;1.30;;;3.70;99.90;;;;;;5018949;28;20235;-91
2023/01/10 02:48:25;;;;;;;1.65;1.00;;;3.80;99.90;;;;;;5036928;28;20033;-93
2023/01/10 02:50:52;;;;;;;2.10;1.23;;;3.70;99.90;;;;;;5033133;28;20045;-91
2023/01/10 02:53:31;;;;;;;2.43;1.20;;;3.70;99.90;;;;;;5035215;28;20025;-93
2023/01/10 02:56:10;;;;;;;2.37;1.27;;;3.70;99.90;;;;;;5037023;28;20033;-93
2023/01/10 02:58:53;;;;;;;2.53;1.30;;;3.60;99.90;;;;;;5018539;28;20036;-93
2023/01/10 03:01:40;;;;;;;3.27;1.50;;;3.60;99.90;;;;;;5018853;28;20490;-94
2023/01/10 03:04:33;;;;;;;1.80;1.40;;;3.60;99.90;;;;;;5019626;28;20022;-93
2023/01/10 03:07:09;;;;;;;1.70;1.20;;;3.50;99.90;;;;;;5010646;28;20482;-93
2023/01/10 03:09:47;;;;;;;2.63;1.10;;;3.50;99.90;;;;;;5015791;28;20038;-94
2023/01/10 03:12:35;;;;;;;2.23;1.33;;;3.60;99.90;;;;;;4998990;28;20034;-93
2023/01/10 03:15:03;;;;;;;3.23;1.47;;;3.60;99.90;;;;;;5034447;28;20021;-93
2023/01/10 03:17:30;;;;;;;3.27;1.37;;;3.50;99.90;;;;;;5017628;28;20034;-93
2023/01/10 03:20:02;;;;;;;2.97;1.40;;;3.50;99.90;;;;;;5018314;28;20569;-93
2023/01/10 03:22:30;;;;;;;1.87;1.30;;;3.60;99.90;;;;;;5020869;28;20026;-94
2023/01/10 03:24:58;;;;;;;2.93;1.50;;;3.60;99.90;;;;;;5000603;28;20033;-94
2023/01/10 03:27:29;;;;;;;2.47;1.50;;;3.60;99.90;;;;;;5000754;28;20056;-94
2023/01/10 03:30:07;;;;;;;3.87;1.70;;;3.60;99.90;;;;;;5037379;28;20036;-93
2023/01/10 03:32:33;;;;;;;2.20;1.30;;;3.70;99.90;;;;;;5020669;28;20029;-93
2023/01/10 03:35:00;;;;;;;1.90;1.23;;;3.70;99.90;;;;;;5038356;28;20646;-93
2023/01/10 03:38:02;;;;;;;2.80;1.50;;;3.60;99.90;;;;;;5032708;28;20105;-93
2023/01/10 03:40:35;;;;;;;1.73;1.43;;;3.60;99.90;;;;;;5019525;28;20076;-93
2023/01/10 03:46:04;;;;;;;3.00;1.60;;;3.70;99.90;;;;;;5024629;28;20513;-93
2023/01/10 03:48:35;;;;;;;7.37;1.97;;;3.70;99.90;;;;;;5037886;28;20048;-93
2023/01/10 03:51:03;;;;;;;3.87;1.70;;;3.70;99.90;;;;;;5019752;28;20022;-93
2023/01/10 03:53:29;;;;;;;3.10;1.90;;;3.70;99.90;;;;;;5010368;28;20022;-94
2023/01/10 03:55:55;;;;;;;4.13;1.70;;;3.70;99.90;;;;;;5036532;28;20079;-93
2023/01/10 03:58:20;;;;;;;2.30;1.40;;;3.70;99.90;;;;;;5020014;28;20405;-93
2023/01/10 04:00:47;;;;;;;2.90;1.60;;;3.70;99.90;;;;;;5037118;28;20033;-93
2023/01/10 04:03:13;;;;;;;2.73;1.53;;;3.80;99.90;;;;;;5012083;28;20116;-93
2023/01/10 04:05:39;;;;;;;2.83;1.77;;;3.80;99.90;;;;;;5000097;28;20139;-94
2023/01/10 04:08:04;;;;;;;2.83;1.63;;;3.80;99.90;;;;;;5017037;28;20149;-93
2023/01/10 04:10:30;;;;;;;2.27;1.70;;;3.80;99.90;;;;;;5015594;28;20052;-94
2023/01/10 04:13:00;;;;;;;3.03;1.80;;;3.80;99.90;;;;;;5036919;28;20387;-93
2023/01/10 04:15:26;;;;;;;2.40;1.50;;;3.80;99.90;;;;;;5036919;28;20378;-93
2023/01/10 04:17:51;;;;;;;4.67;2.10;;;3.80;99.90;;;;;;5019312;28;20093;-93
2023/01/10 04:20:17;;;;;;;3.30;2.10;;;3.80;99.90;;;;;;5030198;28;20447;-94
2023/01/10 04:22:44;;;;;;;3.47;2.40;;;3.90;99.90;;;;;;5010139;28;20026;-93
2023/01/10 04:25:10;;;;;;;2.73;1.80;;;3.90;99.90;;;;;;5036826;28;20048;-94
2023/01/10 04:27:35;;;;;;;2.97;2.00;;;3.90;99.90;;;;;;5035547;28;20105;-93
2023/01/10 04:30:01;;;;;;;3.17;1.90;;;3.90;99.90;;;;;;5017452;28;20451;-93
2023/01/10 04:32:27;;;;;;;2.40;1.80;;;3.80;99.90;;;;;;5036310;28;20112;-93
2023/01/10 04:34:52;;;;;;;3.13;1.93;;;3.80;99.90;;;;;;5013999;28;20076;-92
2023/01/10 04:37:18;;;;;;;1.87;1.60;;;3.80;99.90;;;;;;5017561;28;20025;-93
2023/01/10 04:39:46;;;;;;;2.93;1.90;;;3.70;99.90;;;;;;5014679;28;20022;-93
2023/01/10 04:42:12;;;;;;;2.00;1.67;;;3.70;99.90;;;;;;5009480;28;20029;-93
2023/01/10 04:44:38;;;;;;;2.20;1.83;;;3.80;99.90;;;;;;5017367;28;20056;-93
2023/01/10 04:47:04;;;;;;;2.30;2.03;;;3.80;99.90;;;;;;5010738;28;20437;-93
2023/01/10 04:49:30;;;;;;;2.53;2.00;;;3.80;99.90;;;;;;5018148;28;20038;-93
2023/01/10 04:51:55;;;;;;;2.40;2.20;;;3.80;99.90;;;;;;5036579;28;20509;-93
2023/01/10 04:54:21;;;;;;;5.57;2.73;;;3.80;99.90;;;;;;5006209;28;20019;-93
2023/01/10 04:56:47;;;;;;;3.40;2.30;;;3.70;99.90;;;;;;5018266;28;20385;-93
2023/01/10 04:59:13;;;;;;;2.53;2.30;;;3.70;99.90;;;;;;5018248;28;20057;-94
2023/01/10 05:01:39;;;;;;;4.40;2.20;;;3.70;99.90;;;;;;5035677;28;20033;-94
2023/01/10 05:04:05;;;;;;;2.23;2.00;;;3.70;99.90;;;;;;5018189;28;20136;-93
2023/01/10 05:06:31;;;;;;;2.67;2.17;;;3.70;99.90;;;;;;5031124;28;20076;-94
2023/01/10 05:08:57;;;;;;;3.23;2.10;;;3.70;99.90;;;;;;5018064;28;20466;-93
2023/01/10 05:11:22;;;;;;;2.30;2.10;;;3.70;99.90;;;;;;5036884;28;20025;-93
2023/01/10 05:13:48;;;;;;;3.10;2.50;;;3.60;99.90;;;;;;5008418;28;20032;-93
2023/01/10 05:16:14;;;;;;;3.37;2.53;;;3.60;99.90;;;;;;5019445;28;20075;-93
2023/01/10 05:18:40;;;;;;;2.90;2.30;;;3.60;99.90;;;;;;5037810;28;20048;-94
2023/01/10 05:21:08;;;;;;;2.80;2.50;;;3.70;99.90;;;;;;5037296;28;20111;-93
2023/01/10 05:23:35;;;;;;;2.90;2.43;;;3.70;99.90;;;;;;5029270;28;20029;-94
2023/01/10 05:26:12;;;;;;;3.00;2.27;;;3.60;99.90;;;;;;5000738;28;20125;-94
2023/01/10 05:28:38;;;;;;;3.27;2.10;;;3.60;99.90;;;;;;5009579;28;20045;-93
2023/01/10 05:31:06;;;;;;;2.30;1.87;;;3.70;99.90;;;;;;5030942;28;20064;-94
2023/01/10 05:33:31;;;;;;;2.80;2.03;;;3.70;99.90;;;;;;5018535;28;20056;-92
2023/01/10 05:36:00;;;;;;;2.67;2.00;;;3.70;99.90;;;;;;5000559;28;20022;-94
2023/01/10 05:38:27;;;;;;;2.87;1.93;;;3.70;99.90;;;;;;5012174;28;20049;-94
2023/01/10 05:40:57;;;;;;;2.60;2.00;;;3.70;99.90;;;;;;5006922;28;20033;-92
2023/01/10 05:43:23;;;;;;;2.43;2.00;;;3.70;99.90;;;;;;5034142;28;20029;-93
2023/01/10 05:45:50;;;;;;;2.50;1.70;;;3.70;99.90;;;;;;5021493;28;20025;-94
2023/01/10 05:48:17;;;;;;;2.27;1.60;;;3.70;99.90;;;;;;5007454;28;20036;-93
2023/01/10 05:50:43;;;;;;;2.90;1.70;;;3.70;99.90;;;;;;5019102;28;20045;-94
2023/01/10 05:53:09;;;;;;;2.00;1.40;;;3.70;99.90;;;;;;5017176;28;20425;-93
2023/01/10 05:55:35;;;;;;;2.93;1.70;;;3.70;99.90;;;;;;5028257;28;20052;-93
2023/01/10 05:58:01;;;;;;;2.60;1.73;;;3.70;99.90;;;;;;5018571;28;20018;-93
2023/01/10 06:00:27;;;;;;;2.63;1.63;;;3.70;99.90;;;;;;5036946;28;20025;-93
2023/01/10 06:02:57;;;;;;;1.70;1.57;;;3.70;99.90;;;;;;5043878;28;20404;-94
2023/01/10 06:05:23;;;;;;;1.67;1.47;;;3.70;99.90;;;;;;5020731;28;20100;-92
2023/01/10 06:07:49;;;;;;;2.80;1.50;;;3.70;99.90;;;;;;5025456;28;20031;-93
2023/01/10 06:10:15;;;;;;;1.87;1.40;;;3.70;99.90;;;;;;5009327;28;20034;-94
2023/01/10 06:12:41;;;;;;;2.47;1.50;;;3.70;99.90;;;;;;5018525;28;20548;-93
2023/01/10 06:15:08;;;;;;;1.80;1.50;;;3.80;99.90;;;;;;5038677;28;20022;-94
2023/01/10 06:17:34;;;;;;;1.63;1.50;;;3.70;99.90;;;;;;5047250;28;20041;-94
2023/01/10 06:19:59;;;;;;;1.70;1.43;;;3.70;99.90;;;;;;5031407;28;20053;-93
2023/01/10 06:22:26;;;;;;;2.00;1.53;;;3.70;99.90;;;;;;5020916;28;20030;-92
2023/01/10 06:24:52;;;;;;;1.70;1.40;;;3.80;99.90;;;;;;5027299;28;20049;-92
2023/01/10 06:27:17;;;;;;;1.90;1.57;;;3.70;99.90;;;;;;5048685;28;20030;-93
2023/01/10 06:29:43;;;;;;;2.67;1.60;;;3.70;99.90;;;;;;5035501;28;20044;-92
2023/01/10 06:32:09;;;;;;;3.80;1.63;;;3.80;99.90;;;;;;5016123;28;20360;-93
2023/01/10 06:34:34;;;;;;;3.03;1.20;;;3.80;99.90;;;;;;5017441;28;20033;-93
2023/01/10 06:37:00;;;;;;;1.60;1.47;;;3.80;99.90;;;;;;5036113;28;20091;-94
2023/01/10 06:39:25;;;;;;;2.30;1.57;;;3.80;99.90;;;;;;5036846;28;20017;-93
2023/01/10 06:41:51;;;;;;;1.83;1.50;;;3.80;99.90;;;;;;5019788;28;20026;-93
2023/01/10 06:44:17;;;;;;;1.37;1.17;;;3.80;99.90;;;;;;5036261;28;20076;-94
2023/01/10 06:46:42;;;;;;;1.87;1.60;;;3.80;99.90;;;;;;5017283;28;20021;-93
2023/01/10 06:49:08;;;;;;;1.70;1.40;;;3.80;99.90;;;;;;5012827;28;20045;-95
2023/01/10 06:51:36;;;;;;;2.53;1.40;;;3.80;99.90;;;;;;5036354;28;20075;-94
2023/01/10 06:54:02;;;;;;;2.00;1.33;;;3.80;99.90;;;;;;5037690;28;20029;-93
2023/01/10 06:56:28;;;;;;;1.50;1.40;;;3.70;99.90;;;;;;5024144;28;20032;-94
2023/01/10 06:58:57;;;;;;;2.03;1.47;;;3.70;99.90;;;;;;5040258;28;20033;-94
2023/01/10 07:01:27;;;;;;;1.57;1.47;;;3.70;99.90;;;;;;5023689;28;20028;-93
2023/01/10 07:03:52;;;;;;;1.60;1.40;;;3.80;99.90;;;;;;5021552;28;20175;-95
2023/01/10 07:06:18;;;;;;;2.00;1.20;;;3.80;99.90;;;;;;5022654;28;20034;-95
2023/01/10 07:08:58;;;;;;;2.20;1.37;;;3.80;99.90;;;;;;5037928;28;20112;-94
2023/01/10 07:11:38;;;;;;;1.77;1.40;;;3.80;99.90;;;;;;5032352;28;20037;-95
2023/01/10 09:59:50;;;;;;;6.47;2.03;;;4.40;99.90;;;;;;5059396;28;20132;-95
2023/01/10 10:17:47;;;;;;;;;;;;;;;;;;;;;
2023/01/10 10:27:18;;;;;;;7.83;2.00;;;4.70;99.90;;;;;;4882171;29;20058;-96
2023/01/10 10:34:10;;;;;;;5.13;1.77;;;4.70;99.90;;;;;;4860712;29;20033;-95
2023/01/10 10:37:08;;;;;;;5.03;1.73;;;4.70;99.90;;;;;;4865552;29;20045;-94
2023/01/10 10:43:30;;;;;;;8.30;2.13;;;4.70;99.90;;;;;;4859479;29;20045;-95
2023/01/10 10:46:40;;;;;;;8.33;1.80;;;4.80;99.90;;;;;;4890354;28;20105;-94
2023/01/10 10:49:50;;;;;;;9.27;1.70;;;4.80;99.90;;;;;;4999567;28;20463;-95
2023/01/10 10:52:51;;;;;;;;;;;;;;;;;;;;;
2023/01/10 10:55:50;;;;;;;6.23;1.83;;;5.10;99.90;;;;;;5036137;28;20414;-94
2023/01/10 10:58:21;;;;;;;7.67;2.00;;;5.20;99.90;;;;;;5012721;28;20072;-94
2023/01/10 11:07:39;;;;;;;3.40;1.53;;;5.40;99.90;;;;;;4951055;28;20057;-95
2023/01/10 11:12:49;;;;;;;6.77;1.80;;;5.30;99.90;;;;;;5043752;28;20076;-96
2023/01/10 11:15:42;;;;;;;6.67;1.40;;;5.20;99.90;;;;;;5023446;28;20466;-96
2023/01/10 11:18:16;;;;;;;6.87;2.07;;;5.10;99.90;;;;;;5029726;28;20026;-95
2023/01/10 11:20:49;;;;;;;5.27;1.50;;;5.20;99.90;;;;;;5028145;28;20039;-94
2023/01/10 11:23:35;;;;;;;8.40;1.83;;;5.20;99.90;;;;;;5055089;28;20029;-93
2023/01/10 11:26:02;;;;;;;5.93;1.50;;;5.10;99.90;;;;;;5037259;28;20347;-93
2023/01/10 11:28:30;;;;;;;7.13;1.90;;;5.10;99.90;;;;;;5054567;28;20080;-94
2023/01/10 11:30:57;;;;;;;5.30;1.80;;;5.10;99.90;;;;;;5037153;28;20116;-94
2023/01/10 11:33:34;;;;;;;9.67;2.07;;;5.00;99.90;;;;;;5058947;28;20378;-94
2023/01/10 11:36:03;;;;;;;6.80;1.70;;;5.20;99.90;;;;;;5058040;28;20192;-94
2023/01/10 11:38:30;;;;;;;7.37;2.00;;;5.20;99.90;;;;;;5037298;28;20487;-95
2023/01/10 11:41:01;;;;;;;6.07;1.70;;;5.30;99.90;;;;;;5015850;28;20041;-93
2023/01/10 11:43:29;;;;;;;7.47;1.80;;;5.30;99.90;;;;;;5014764;28;20038;-95
2023/01/10 11:46:01;;;;;;;7.63;1.93;;;5.20;99.90;;;;;;5013225;28;20030;-94
2023/01/10 11:48:42;;;;;;;10.50;1.90;;;5.20;99.90;;;;;;5021073;28;20029;-95
2023/01/10 11:51:22;;;;;;;6.93;2.23;;;5.30;99.90;;;;;;5019759;28;20029;-94
2023/01/10 11:53:51;;;;;;;8.67;1.70;;;5.30;99.90;;;;;;5028523;28;20037;-86
2023/01/10 11:56:28;;;;;;;5.87;1.63;;;5.30;99.90;;;;;;5016676;28;20026;-84
2023/01/10 11:58:55;;;;;;;7.53;1.90;;;5.30;99.90;;;;;;5019132;28;20057;-85
2023/01/10 12:01:33;;;;;;;8.47;1.97;;;5.40;99.90;;;;;;5027299;28;20031;-86
2023/01/10 12:03:59;;;;;;;5.33;1.90;;;5.50;99.90;;;;;;5019937;28;20048;-86
2023/01/10 12:06:25;;;;;;;6.97;1.73;;;5.50;99.90;;;;;;5021521;28;20021;-85
2023/01/10 12:08:54;;;;;;;9.60;1.80;;;5.50;99.90;;;;;;5018753;28;20041;-86
2023/01/10 12:11:31;;;;;;;5.27;1.70;;;5.50;99.90;;;;;;5021985;28;20021;-85
2023/01/10 12:14:00;;;;;;;4.30;2.00;;;5.40;99.90;;;;;;5023884;28;20030;-85
2023/01/10 12:16:28;;;;;;;6.43;1.80;;;5.40;99.90;;;;;;5003612;28;20056;-85
2023/01/10 12:18:58;;;;;;;9.00;2.27;;;5.50;99.90;;;;;;5021615;28;20370;-86
2023/01/10 12:21:30;;;;;;;5.57;1.57;;;5.50;99.90;;;;;;5021088;28;20559;-86
2023/01/10 12:24:00;;;;;;;5.10;1.67;;;5.50;99.90;;;;;;5026301;28;20379;-86
2023/01/10 12:26:30;;;;;;;6.27;1.90;;;5.50;99.90;;;;;;5024760;28;20052;-85
2023/01/10 12:28:58;;;;;;;5.13;1.67;;;5.60;99.90;;;;;;5020648;28;20041;-86
2023/01/10 12:31:25;;;;;;;6.57;1.90;;;5.50;99.90;;;;;;5027104;28;20060;-86
2023/01/10 12:34:06;;;;;;;4.40;1.70;;;5.50;99.90;;;;;;5027213;28;21024;-86
2023/01/10 12:36:45;;;;;;;6.90;1.60;;;5.50;99.90;;;;;;5000954;28;20021;-86
2023/01/10 12:39:25;;;;;;;9.93;1.80;;;5.60;99.90;;;;;;5019662;28;20409;-85
2023/01/10 12:45:19;;;;;;;5.27;1.70;;;5.70;99.90;;;;;;5019118;28;20122;-85
2023/01/10 12:48:03;;;;;;;4.47;1.87;;;5.60;99.90;;;;;;5026911;28;20025;-86
2023/01/10 12:50:52;;;;;;;15.77;1.77;;;5.60;99.90;;;;;;5027277;28;20036;-86
2023/01/10 12:53:33;;;;;;;3.33;1.43;;;5.70;99.90;;;;;;5023116;28;20040;-86
2023/01/10 12:56:03;;;;;;;7.00;1.87;;;5.80;99.90;;;;;;5028869;28;20014;-86
2023/01/10 12:58:45;;;;;;;5.07;1.80;;;5.80;99.90;;;;;;5030183;28;20025;-86
2023/01/10 13:01:17;;;;;;;8.17;2.10;;;5.80;99.90;;;;;;5023549;28;20029;-85
2023/01/10 13:03:45;;;;;;;9.83;2.10;;;5.80;99.90;;;;;;5030386;28;20018;-85
2023/01/10 13:06:31;;;;;;;4.73;2.00;;;5.90;99.90;;;;;;5028920;28;20528;-83
2023/01/10 13:09:02;;;;;;;7.17;1.87;;;5.90;99.90;;;;;;5026281;28;20533;-85
2023/01/10 13:11:36;;;;;;;7.10;2.13;;;5.90;99.90;;;;;;5029544;28;20394;-85
2023/01/10 13:14:03;;;;;;;8.93;1.80;;;5.90;99.90;;;;;;5020485;28;20049;-87
2023/01/10 13:16:38;;;;;;;6.73;1.73;;;5.90;99.90;;;;;;5022046;28;20030;-87
2023/01/10 13:19:10;;;;;;;6.63;1.80;;;5.90;99.90;;;;;;5023855;28;20021;-88
2023/01/10 13:21:37;;;;;;;5.90;1.73;;;5.90;99.90;;;;;;5018294;28;20435;-87
2023/01/10 13:24:05;;;;;;;6.47;1.70;;;5.90;99.90;;;;;;5001125;28;20071;-87
2023/01/10 13:26:51;;;;;;;5.73;1.57;;;5.90;99.90;;;;;;5009612;28;20072;-88
2023/01/10 13:29:28;;;;;;;8.27;1.83;;;6.00;99.90;;;;;;5008875;28;20108;-88
2023/01/10 13:31:58;;;;;;;3.73;1.50;;;6.00;99.90;;;;;;5025810;28;20734;-88
2023/01/10 13:34:34;;;;;;;5.53;1.70;;;5.90;99.90;;;;;;5025785;28;20033;-88
2023/01/10 13:37:19;;;;;;;7.30;1.77;;;6.00;99.90;;;;;;5029109;28;20830;-88
2023/01/10 13:39:50;;;;;;;;;;;5.90;99.90;;;;;;5008182;28;20034;-88
2023/01/10 13:45:18;;;;;;;5.10;2.07;;;5.90;99.90;;;;;;5029047;28;20118;-87
2023/01/10 13:47:45;;;;;;;5.93;1.87;;;5.90;99.90;;;;;;5030822;28;20088;-88
2023/01/10 13:50:32;;;;;;;9.23;2.00;;;5.80;99.90;;;;;;5027082;28;20044;-88
2023/01/10 13:53:04;;;;;;;6.33;1.60;;;5.70;99.90;;;;;;5029227;28;20116;-87
2023/01/10 13:55:41;;;;;;;5.80;1.80;;;5.70;99.90;;;;;;5011513;28;20030;-88
2023/01/10 13:58:13;;;;;;;6.77;1.83;;;5.70;99.90;;;;;;5029023;28;20021;-87
2023/01/10 14:03:57;;;;;;;5.83;1.80;;;5.70;99.90;;;;;;5026353;28;20052;-88
2023/01/10 14:06:29;;;;;;;6.37;1.60;;;5.70;99.90;;;;;;5027549;28;20032;-88
2023/01/10 14:08:57;;;;;;;7.43;1.50;;;5.60;99.90;;;;;;5028268;28;20426;-89
2023/01/10 14:11:28;;;;;;;5.93;1.77;;;5.60;99.90;;;;;;5024636;28;20034;-87
2023/01/10 14:13:57;;;;;;;8.17;1.90;;;5.60;99.90;;;;;;5021647;28;20049;-87
2023/01/10 14:16:29;;;;;;;7.90;1.93;;;5.60;99.90;;;;;;5007015;28;20037;-88
2023/01/10 14:18:55;;;;;;;6.73;2.00;;;5.60;99.90;;;;;;5022556;28;20044;-88
2023/01/10 14:21:25;;;;;;;6.90;1.73;;;5.60;99.90;;;;;;5021526;28;20134;-88
2023/01/10 14:23:52;;;;;;;6.43;1.73;;;5.60;99.90;;;;;;5019418;28;20179;-88
2023/01/10 14:26:18;;;;;;;5.07;1.70;;;5.60;99.90;;;;;;5025024;28;20939;-88
2023/01/10 14:28:44;;;;;;;9.43;2.00;;;5.70;99.90;;;;;;5021759;28;20108;-88
2023/01/10 14:31:22;;;;;;;7.87;2.10;;;5.60;99.90;;;;;;5005816;28;20034;-88
2023/01/10 14:33:48;;;;;;;7.20;2.40;;;5.50;99.90;;;;;;5024133;28;20041;-88
2023/01/10 14:36:28;;;;;;;7.90;1.60;;;5.50;99.90;;;;;;5023570;28;20107;-88
2023/01/10 14:38:59;;;;;;;8.03;1.77;;;5.40;99.90;;;;;;5013127;28;20144;-88
2023/01/10 14:41:34;;;;;;;8.47;2.37;;;5.30;99.90;;;;;;5020868;28;20133;-88
2023/01/10 14:44:21;;;;;;;6.88;1.55;;;5.30;99.90;;;;;;5000943;28;20029;-88
2023/01/10 14:46:52;;;;;;;5.90;2.07;;;5.30;99.90;;;;;;5016460;28;20038;-88
2023/01/10 14:49:28;;;;;;;7.20;1.70;;;5.30;99.90;;;;;;5003955;28;20044;-88
2023/01/10 14:52:10;;;;;;;8.00;1.67;;;5.30;99.90;;;;;;5018882;28;20446;-87
2023/01/10 14:54:35;;;;;;;7.23;1.67;;;5.40;99.90;;;;;;5019273;28;20025;-87
2023/01/10 14:57:01;;;;;;;7.80;1.80;;;5.30;99.90;;;;;;5003326;28;20130;-87
2023/01/10 14:59:29;;;;;;;6.13;1.70;;;5.20;99.90;;;;;;5023166;28;20030;-87
2023/01/10 15:02:01;;;;;;;7.40;2.00;;;5.20;99.90;;;;;;5022458;28;20499;-87
2023/01/10 15:04:31;;;;;;;4.90;1.90;;;5.10;99.90;;;;;;5022040;28;20037;-87
2023/01/10 15:07:01;;;;;;;5.37;1.73;;;5.10;99.90;;;;;;5007610;28;20017;-88
2023/01/10 15:09:29;;;;;;;11.80;2.53;;;5.10;99.90;;;;;;5022208;28;20724;-88
2023/01/10 15:11:57;;;;;;;6.47;1.70;;;5.10;99.90;;;;;;5022881;28;20104;-88
2023/01/10 15:14:25;;;;;;;3.67;1.57;;;5.10;99.90;;;;;;5022834;28;20367;-87
2023/01/10 15:16:55;;;;;;;6.33;1.60;;;5.10;99.90;;;;;;5021861;28;21316;-87
2023/01/10 15:19:22;;;;;;;6.60;1.67;;;5.10;99.90;;;;;;5022647;28;20032;-87
2023/01/10 15:21:48;;;;;;;5.50;1.40;;;5.10;99.90;;;;;;5007110;28;20033;-88
2023/01/10 15:24:33;;;;;;;5.63;2.00;;;5.10;99.90;;;;;;5022867;28;20075;-87
2023/01/10 15:27:07;;;;;;;8.75;1.90;;;5.10;99.90;;;;;;5022303;28;20025;-87
2023/01/10 15:29:34;;;;;;;6.07;1.60;;;5.00;99.90;;;;;;5007644;28;20061;-87
2023/01/10 15:32:09;;;;;;;7.97;1.80;;;5.00;99.90;;;;;;5025847;28;20036;-88
2023/01/10 15:34:35;;;;;;;;;;;4.90;99.90;;;;;;5022490;28;20041;-87
2023/01/10 15:37:01;;;;;;;5.43;1.60;;;4.90;99.90;;;;;;5022307;28;19913;-87
2023/01/10 15:39:35;;;;;;;8.77;1.63;;;4.80;99.90;;;;;;5024125;28;21214;-87
2023/01/10 15:42:04;;;;;;;5.73;1.87;;;4.80;99.90;;;;;;5022718;28;20033;-87
2023/01/10 15:44:35;;;;;;;6.33;1.67;;;4.70;99.90;;;;;;5023752;28;20034;-88
2023/01/10 15:47:00;;;;;;;4.53;1.70;;;4.60;99.90;;;;;;5021871;28;20129;-88
2023/01/10 15:49:26;;;;;;;7.97;2.27;;;4.60;99.90;;;;;;5023026;28;20159;-88
2023/01/10 15:51:53;;;;;;;5.33;1.80;;;4.50;99.90;;;;;;5021845;28;20113;-87
2023/01/10 15:54:18;;;;;;;5.20;1.83;;;4.40;99.90;;;;;;5004955;28;20363;-87
2023/01/10 15:56:50;;;;;;;5.07;1.87;;;4.30;99.90;;;;;;4999799;28;20026;-87
2023/01/10 15:59:27;;;;;;;8.23;2.07;;;4.30;99.90;;;;;;4994244;28;20029;-87
2023/01/10 16:01:53;;;;;;;6.03;2.80;;;4.20;99.90;;;;;;5017606;28;20029;-88
2023/01/10 16:04:19;;;;;;;7.80;2.53;;;4.10;99.90;;;;;;5016902;28;20025;-87
2023/01/10 16:07:03;;;;;;;6.87;2.53;;;4.10;99.90;;;;;;5018409;28;20048;-87
2023/01/10 16:09:31;;;;;;;7.57;2.27;;;4.00;99.90;;;;;;5019688;28;20076;-87
2023/01/10 16:14:41;;;;;;;8.53;2.93;;;3.90;99.90;;;;;;5020540;28;20079;-87
2023/01/10 16:17:09;;;;;;;11.33;3.10;;;3.80;99.90;;;;;;5002426;28;20471;-87
2023/01/10 16:19:34;;;;;;;11.27;2.83;;;3.70;99.90;;;;;;5023486;28;20032;-81
2023/01/10 16:22:00;;;;;;;6.70;2.87;;;3.70;99.90;;;;;;5021137;28;20033;-81
2023/01/10 16:24:32;;;;;;;6.97;2.60;;;3.60;99.90;;;;;;5004107;28;20076;-81
2023/01/10 16:27:01;;;;;;;8.80;2.40;;;3.50;99.90;;;;;;5024042;28;20186;-81
2023/01/10 16:29:28;;;;;;;13.27;2.60;;;3.40;99.90;;;;;;5024927;28;20087;-77
2023/01/10 16:31:54;;;;;;;11.47;2.50;;;3.40;99.90;;;;;;5023735;28;20479;-92
2023/01/10 16:34:20;;;;;;;11.23;2.87;;;3.30;99.90;;;;;;5013179;28;20053;-92
2023/01/10 16:36:45;;;;;;;10.93;2.87;;;3.20;99.90;;;;;;5029745;28;20029;-88
2023/01/10 16:39:16;;;;;;;7.70;3.43;;;3.20;99.90;;;;;;5032088;28;20466;-94
2023/01/10 16:44:29;;;;;;;9.48;3.88;;;3.10;99.90;;;;;;5024424;28;20433;-84
2023/01/10 16:46:56;;;;;;;9.77;3.67;;;3.00;99.90;;;;;;5009030;28;20509;-84
2023/01/10 16:49:22;;;;;;;10.67;2.90;;;3.00;99.90;;;;;;5021106;28;20029;-83
2023/01/10 16:51:48;;;;;;;10.63;2.63;;;2.90;99.90;;;;;;5022978;28;20040;-91
2023/01/10 16:54:24;;;;;;;8.87;2.43;;;2.90;99.90;;;;;;5030877;28;20029;-85
2023/01/10 16:56:49;;;;;;;;;;;2.80;99.90;;;;;;5026781;28;20034;-90
2023/01/10 16:59:16;;;;;;;7.33;1.70;;;2.80;99.90;;;;;;5034677;28;19912;-92
2023/01/10 17:01:49;;;;;;;10.33;2.00;;;2.70;99.90;;;;;;5029057;28;20428;-91
2023/01/10 17:04:20;;;;;;;8.40;1.97;;;2.70;99.90;;;;;;5036812;28;20421;-90
2023/01/10 17:06:46;;;;;;;4.77;2.10;;;2.70;99.90;;;;;;5033555;28;20059;-92
2023/01/10 17:09:27;;;;;;;6.13;3.43;;;2.60;99.90;;;;;;5029667;28;20620;-91